Superfun — ZCCL5 — position and weather

sailwx.info

Track history (hours):
 
Tides and Currents Weather Stations Pressure Air Temp Water Temp Dewpoint Dewpoint Depression Visibility Wind Speed Wind Dir Waves Ship Positions

Superfun

Last reported at 2015-Jul-31 15:33 UTC. Time now 2015-Aug-02 00:14 UTC.
Position N 43°35' E 007°12'.

Length 40 m.

Type: Other ship. MMSI: 319163000.

Date/timePositionNaut miles runAvg speedWind from/ knotsBaromVisibWave heightAir tempDewpointWater temp
2015-Jul-31 15:33N 43°35' E 007°12'30 2.8
2015-Jul-31 04:31N 43°16' E 006°40'0 0.0
2015-Jul-31 03:22N 43°16' E 006°40'0 0.0
2015-Jul-31 02:31N 43°16' E 006°40'0 0.0
2015-Jul-31 01:28N 43°16' E 006°40'0 0.0
2015-Jul-31 00:31N 43°16' E 006°40'0 0.0
2015-Jul-30 23:31N 43°16' E 006°40'0 0.0
2015-Jul-30 22:28N 43°16' E 006°40'0 0.0
2015-Jul-30 21:28N 43°16' E 006°40'0 0.0
2015-Jul-30 20:28N 43°16' E 006°40'0 0.0
2015-Jul-30 19:22N 43°16' E 006°40'0 0.0
2015-Jul-30 18:28N 43°16' E 006°40'0 0.0
2015-Jul-30 17:28N 43°16' E 006°40'0 0.0
2015-Jul-30 16:25N 43°16' E 006°40'0 0.0
2015-Jul-30 15:22N 43°16' E 006°40'0 0.0
2015-Jul-30 13:28N 43°16' E 006°40'0 0.0
2015-Jul-30 12:22N 43°16' E 006°40'0 0.0
2015-Jul-30 11:28N 43°16' E 006°40'0 0.0
2015-Jul-30 10:10N 43°16' E 006°40'0 0.0
2015-Jul-30 09:28N 43°16' E 006°40'0 0.0
2015-Jul-30 08:13N 43°16' E 006°40'0 0.0
2015-Jul-30 07:28N 43°16' E 006°40'0 0.0
2015-Jul-30 06:28N 43°16' E 006°40'0 0.0
2015-Jul-30 05:28N 43°16' E 006°40'0 0.0
2015-Jul-30 04:28N 43°16' E 006°40'0 0.0
2015-Jul-30 03:28N 43°16' E 006°40'0 0.0
2015-Jul-30 02:28N 43°16' E 006°40'0 0.0
2015-Jul-30 01:28N 43°16' E 006°40'0 0.0
2015-Jul-30 00:28N 43°16' E 006°40'0 0.0
2015-Jul-29 23:28N 43°16' E 006°40'0 0.0
2015-Jul-29 22:28N 43°16' E 006°40'0 0.0
2015-Jul-29 21:31N 43°16' E 006°40'0 0.0
2015-Jul-29 20:25N 43°16' E 006°40'0 0.0
2015-Jul-29 19:31N 43°16' E 006°40'0 0.0
2015-Jul-29 18:28N 43°16' E 006°40'0 0.0
2015-Jul-29 17:22N 43°16' E 006°40'0 0.0
2015-Jul-29 16:25N 43°16' E 006°40'0 0.0
2015-Jul-29 14:28N 43°16' E 006°40'0 0.0
2015-Jul-29 13:25N 43°16' E 006°40'0 0.0
2015-Jul-29 12:28N 43°16' E 006°40'0 0.0
2015-Jul-29 11:28N 43°16' E 006°40'0 0.0
2015-Jul-29 10:31N 43°16' E 006°40'0 0.0
2015-Jul-29 09:28N 43°16' E 006°40'0 0.0
2015-Jul-29 08:16N 43°16' E 006°40'0 0.0
2015-Jul-29 07:31N 43°16' E 006°40'0 0.0
2015-Jul-29 06:28N 43°16' E 006°40'0 0.0
2015-Jul-29 05:31N 43°16' E 006°40'0 0.0
2015-Jul-29 04:28N 43°16' E 006°40'0 0.0
2015-Jul-29 03:25N 43°16' E 006°40'0 0.0
2015-Jul-29 02:34N 43°16' E 006°40'0 0.0
2015-Jul-29 01:28N 43°16' E 006°40'0 0.0
2015-Jul-29 00:28N 43°16' E 006°40'0 0.0
2015-Jul-28 23:22N 43°16' E 006°40'0 0.0
2015-Jul-28 22:34N 43°16' E 006°40'0 0.0
2015-Jul-28 21:28N 43°16' E 006°40'0 0.0
2015-Jul-28 20:25N 43°16' E 006°40'0 0.0
2015-Jul-28 19:28N 43°16' E 006°40'0 0.0
2015-Jul-28 18:27N 43°16' E 006°40'0 0.0
2015-Jul-28 17:27N 43°16' E 006°40'0 0.0
2015-Jul-28 16:25N 43°16' E 006°40'0 0.0
2015-Jul-28 15:22N 43°16' E 006°40'0 0.0
2015-Jul-28 14:28N 43°16' E 006°40'0 0.0
2015-Jul-28 12:27N 43°16' E 006°40'2 0.5
2015-Jul-28 08:33N 43°18' E 006°40'9 8.5
2015-Jul-28 07:32N 43°23' E 006°50'9 8.8
2015-Jul-28 06:34N 43°28' E 007°00'9 9.2
2015-Jul-28 05:33N 43°33' E 007°10'  
2015-Jul-25 12:33N 43°37' E 007°12'3 2.8
2015-Jul-25 11:28N 43°36' E 007°08'5 5.2
2015-Jul-25 10:33N 43°32' E 007°04'2 2.3
2015-Jul-25 09:33N 43°34' E 007°07'0 0.1
2015-Jul-25 08:33N 43°34' E 007°07'0 0.0
2015-Jul-25 07:27N 43°34' E 007°07'4 0.4
2015-Jul-24 19:31N 43°31' E 007°01'1 0.2
2015-Jul-24 15:21N 43°31' E 007°02'9 5.3
2015-Jul-24 13:33N 43°25' E 006°52'9 9.3
2015-Jul-24 12:33N 43°17' E 006°45'3 0.1
2015-Jul-23 13:30N 43°15' E 006°43'8 8.3
2015-Jul-23 12:30N 43°22' E 006°49'8 8.5
2015-Jul-23 11:33N 43°27' E 006°57'5 4.8
2015-Jul-23 10:32N 43°31' E 007°02'2 0.5
2015-Jul-23 06:14N 43°33' E 007°01'4 4.9
2015-Jul-23 05:30N 43°31' E 007°05'4 4.0
2015-Jul-23 04:31N 43°34' E 007°08'0 0.0
2015-Jul-23 03:31N 43°34' E 007°08'0 0.0
2015-Jul-23 02:31N 43°34' E 007°08'0 0.0
2015-Jul-23 01:31N 43°34' E 007°08'0 0.1
2015-Jul-23 00:31N 43°34' E 007°08'0 0.0
2015-Jul-22 23:31N 43°34' E 007°08'0 0.0
2015-Jul-22 22:28N 43°34' E 007°08'0 0.0
2015-Jul-22 21:31N 43°34' E 007°08'0 0.0
2015-Jul-22 20:31N 43°34' E 007°08'0 0.0
2015-Jul-22 19:31N 43°34' E 007°08'13 6.5
2015-Jul-22 17:33N 43°25' E 006°55'9 9.1
2015-Jul-22 16:33N 43°20' E 006°45'5 1.1
2015-Jul-22 11:30N 43°16' E 006°39'0 0.0
2015-Jul-22 10:31N 43°16' E 006°39'2 2.5
2015-Jul-22 09:33N 43°17' E 006°43'3 2.5
2015-Jul-22 08:23N 43°14' E 006°41'3 2.6
2015-Jul-22 07:23N 43°17' E 006°40'0 0.0
2015-Jul-22 06:20N 43°17' E 006°40'0 0.0
2015-Jul-22 05:20N 43°17' E 006°40'0 0.0
2015-Jul-22 04:17N 43°17' E 006°40'0 0.0
2015-Jul-22 03:23N 43°17' E 006°40'0 0.0
2015-Jul-22 01:23N 43°17' E 006°40'0 0.0
2015-Jul-22 00:29N 43°17' E 006°40'0 0.0
2015-Jul-21 23:08N 43°17' E 006°40'5 8.0
2015-Jul-21 22:33N 43°19' E 006°44'9 9.2
2015-Jul-21 21:33N 43°25' E 006°54'8 6.7
2015-Jul-21 20:24N 43°32' E 006°60'3 1.2
2015-Jul-21 18:08N 43°31' E 006°57'4 7.3
2015-Jul-21 17:33N 43°26' E 006°55'  
Track history (hours):
 
Tides and Currents Weather Stations Pressure Air Temp Water Temp Dewpoint Dewpoint Depression Visibility Wind Speed Wind Dir Waves Ship Positions

Superfun

Last reported at 2015-Jul-31 15:33 UTC. Time now 2015-Aug-02 00:14 UTC.
Position N 43°35' E 007°12'.

Length 40 m.

Type: Other ship. MMSI: 319163000.

Date/timePositionNaut miles runAvg speedWind from/ knotsBaromVisibWave heightAir tempDewpointWater temp
2015-Jul-31 15:33N 43°35' E 007°12'30 2.8
2015-Jul-31 04:31N 43°16' E 006°40'0 0.0
2015-Jul-31 03:22N 43°16' E 006°40'0 0.0
2015-Jul-31 02:31N 43°16' E 006°40'0 0.0
2015-Jul-31 01:28N 43°16' E 006°40'0 0.0
2015-Jul-31 00:31N 43°16' E 006°40'0 0.0
2015-Jul-30 23:31N 43°16' E 006°40'0 0.0
2015-Jul-30 22:28N 43°16' E 006°40'0 0.0
2015-Jul-30 21:28N 43°16' E 006°40'0 0.0
2015-Jul-30 20:28N 43°16' E 006°40'0 0.0
2015-Jul-30 19:22N 43°16' E 006°40'0 0.0
2015-Jul-30 18:28N 43°16' E 006°40'0 0.0
2015-Jul-30 17:28N 43°16' E 006°40'0 0.0
2015-Jul-30 16:25N 43°16' E 006°40'0 0.0
2015-Jul-30 15:22N 43°16' E 006°40'0 0.0
2015-Jul-30 13:28N 43°16' E 006°40'0 0.0
2015-Jul-30 12:22N 43°16' E 006°40'0 0.0
2015-Jul-30 11:28N 43°16' E 006°40'0 0.0
2015-Jul-30 10:10N 43°16' E 006°40'0 0.0
2015-Jul-30 09:28N 43°16' E 006°40'0 0.0
2015-Jul-30 08:13N 43°16' E 006°40'0 0.0
2015-Jul-30 07:28N 43°16' E 006°40'0 0.0
2015-Jul-30 06:28N 43°16' E 006°40'0 0.0
2015-Jul-30 05:28N 43°16' E 006°40'0 0.0
2015-Jul-30 04:28N 43°16' E 006°40'0 0.0
2015-Jul-30 03:28N 43°16' E 006°40'0 0.0
2015-Jul-30 02:28N 43°16' E 006°40'0 0.0
2015-Jul-30 01:28N 43°16' E 006°40'0 0.0
2015-Jul-30 00:28N 43°16' E 006°40'0 0.0
2015-Jul-29 23:28N 43°16' E 006°40'0 0.0
2015-Jul-29 22:28N 43°16' E 006°40'0 0.0
2015-Jul-29 21:31N 43°16' E 006°40'0 0.0
2015-Jul-29 20:25N 43°16' E 006°40'0 0.0
2015-Jul-29 19:31N 43°16' E 006°40'0 0.0
2015-Jul-29 18:28N 43°16' E 006°40'0 0.0
2015-Jul-29 17:22N 43°16' E 006°40'0 0.0
2015-Jul-29 16:25N 43°16' E 006°40'0 0.0
2015-Jul-29 14:28N 43°16' E 006°40'0 0.0
2015-Jul-29 13:25N 43°16' E 006°40'0 0.0
2015-Jul-29 12:28N 43°16' E 006°40'0 0.0
2015-Jul-29 11:28N 43°16' E 006°40'0 0.0
2015-Jul-29 10:31N 43°16' E 006°40'0 0.0
2015-Jul-29 09:28N 43°16' E 006°40'0 0.0
2015-Jul-29 08:16N 43°16' E 006°40'0 0.0
2015-Jul-29 07:31N 43°16' E 006°40'0 0.0
2015-Jul-29 06:28N 43°16' E 006°40'0 0.0
2015-Jul-29 05:31N 43°16' E 006°40'0 0.0
2015-Jul-29 04:28N 43°16' E 006°40'0 0.0
2015-Jul-29 03:25N 43°16' E 006°40'0 0.0
2015-Jul-29 02:34N 43°16' E 006°40'0 0.0
2015-Jul-29 01:28N 43°16' E 006°40'0 0.0
2015-Jul-29 00:28N 43°16' E 006°40'0 0.0
2015-Jul-28 23:22N 43°16' E 006°40'0 0.0
2015-Jul-28 22:34N 43°16' E 006°40'0 0.0
2015-Jul-28 21:28N 43°16' E 006°40'0 0.0
2015-Jul-28 20:25N 43°16' E 006°40'0 0.0
2015-Jul-28 19:28N 43°16' E 006°40'0 0.0
2015-Jul-28 18:27N 43°16' E 006°40'0 0.0
2015-Jul-28 17:27N 43°16' E 006°40'0 0.0
2015-Jul-28 16:25N 43°16' E 006°40'0 0.0
2015-Jul-28 15:22N 43°16' E 006°40'0 0.0
2015-Jul-28 14:28N 43°16' E 006°40'0 0.0
2015-Jul-28 12:27N 43°16' E 006°40'2 0.5
2015-Jul-28 08:33N 43°18' E 006°40'9 8.5
2015-Jul-28 07:32N 43°23' E 006°50'9 8.8
2015-Jul-28 06:34N 43°28' E 007°00'9 9.2
2015-Jul-28 05:33N 43°33' E 007°10'  
2015-Jul-25 12:33N 43°37' E 007°12'3 2.8
2015-Jul-25 11:28N 43°36' E 007°08'5 5.2
2015-Jul-25 10:33N 43°32' E 007°04'2 2.3
2015-Jul-25 09:33N 43°34' E 007°07'0 0.1
2015-Jul-25 08:33N 43°34' E 007°07'0 0.0
2015-Jul-25 07:27N 43°34' E 007°07'4 0.4
2015-Jul-24 19:31N 43°31' E 007°01'1 0.2
2015-Jul-24 15:21N 43°31' E 007°02'9 5.3
2015-Jul-24 13:33N 43°25' E 006°52'9 9.3
2015-Jul-24 12:33N 43°17' E 006°45'3 0.1
2015-Jul-23 13:30N 43°15' E 006°43'8 8.3
2015-Jul-23 12:30N 43°22' E 006°49'8 8.5
2015-Jul-23 11:33N 43°27' E 006°57'5 4.8
2015-Jul-23 10:32N 43°31' E 007°02'2 0.5
2015-Jul-23 06:14N 43°33' E 007°01'4 4.9
2015-Jul-23 05:30N 43°31' E 007°05'4 4.0
2015-Jul-23 04:31N 43°34' E 007°08'0 0.0
2015-Jul-23 03:31N 43°34' E 007°08'0 0.0
2015-Jul-23 02:31N 43°34' E 007°08'0 0.0
2015-Jul-23 01:31N 43°34' E 007°08'0 0.1
2015-Jul-23 00:31N 43°34' E 007°08'0 0.0
2015-Jul-22 23:31N 43°34' E 007°08'0 0.0
2015-Jul-22 22:28N 43°34' E 007°08'0 0.0
2015-Jul-22 21:31N 43°34' E 007°08'0 0.0
2015-Jul-22 20:31N 43°34' E 007°08'0 0.0
2015-Jul-22 19:31N 43°34' E 007°08'13 6.5
2015-Jul-22 17:33N 43°25' E 006°55'9 9.1
2015-Jul-22 16:33N 43°20' E 006°45'5 1.1
2015-Jul-22 11:30N 43°16' E 006°39'0 0.0
2015-Jul-22 10:31N 43°16' E 006°39'2 2.5
2015-Jul-22 09:33N 43°17' E 006°43'3 2.5
2015-Jul-22 08:23N 43°14' E 006°41'3 2.6
2015-Jul-22 07:23N 43°17' E 006°40'0 0.0
2015-Jul-22 06:20N 43°17' E 006°40'0 0.0
2015-Jul-22 05:20N 43°17' E 006°40'0 0.0
2015-Jul-22 04:17N 43°17' E 006°40'0 0.0
2015-Jul-22 03:23N 43°17' E 006°40'0 0.0
2015-Jul-22 01:23N 43°17' E 006°40'0 0.0
2015-Jul-22 00:29N 43°17' E 006°40'0 0.0
2015-Jul-21 23:08N 43°17' E 006°40'5 8.0
2015-Jul-21 22:33N 43°19' E 006°44'9 9.2
2015-Jul-21 21:33N 43°25' E 006°54'8 6.7
2015-Jul-21 20:24N 43°32' E 006°60'3 1.2
2015-Jul-21 18:08N 43°31' E 006°57'4 7.3
2015-Jul-21 17:33N 43°26' E 006°55'  

Dump ship's entire track history